sensor_id;sensor_type;location;lat;lon;timestamp;P1;durP1;ratioP1;P2;durP2;ratioP2
151;SDS011;68;48.792;9.164;2022-09-12T00:02:22;13.25;;;11.15;;
151;SDS011;68;48.792;9.164;2022-09-12T00:04:49;14.60;;;10.88;;
151;SDS011;68;48.792;9.164;2022-09-12T00:07:16;14.18;;;11.05;;
151;SDS011;68;48.792;9.164;2022-09-12T00:09:45;14.35;;;10.73;;
151;SDS011;68;48.792;9.164;2022-09-12T00:12:11;20.08;;;11.15;;
151;SDS011;68;48.792;9.164;2022-09-12T00:14:38;12.52;;;10.45;;
151;SDS011;68;48.792;9.164;2022-09-12T00:17:05;17.13;;;10.88;;
151;SDS011;68;48.792;9.164;2022-09-12T00:19:32;14.73;;;11.07;;
151;SDS011;68;48.792;9.164;2022-09-12T00:21:58;14.50;;;10.65;;
151;SDS011;68;48.792;9.164;2022-09-12T00:24:25;17.83;;;11.23;;
151;SDS011;68;48.792;9.164;2022-09-12T00:26:53;14.07;;;10.15;;
151;SDS011;68;48.792;9.164;2022-09-12T00:29:20;13.55;;;11.10;;
151;SDS011;68;48.792;9.164;2022-09-12T00:31:47;15.32;;;11.30;;
151;SDS011;68;48.792;9.164;2022-09-12T00:34:14;17.20;;;10.90;;
151;SDS011;68;48.792;9.164;2022-09-12T00:36:41;12.65;;;10.63;;
151;SDS011;68;48.792;9.164;2022-09-12T00:39:09;16.33;;;11.63;;
151;SDS011;68;48.792;9.164;2022-09-12T00:41:40;14.18;;;11.45;;
151;SDS011;68;48.792;9.164;2022-09-12T00:47:15;13.95;;;11.55;;
151;SDS011;68;48.792;9.164;2022-09-12T00:49:50;15.63;;;11.50;;
151;SDS011;68;48.792;9.164;2022-09-12T00:52:21;18.05;;;11.75;;
151;SDS011;68;48.792;9.164;2022-09-12T00:54:52;15.65;;;11.57;;
151;SDS011;68;48.792;9.164;2022-09-12T00:57:24;16.02;;;12.30;;
151;SDS011;68;48.792;9.164;2022-09-12T00:59:58;13.75;;;11.73;;
151;SDS011;68;48.792;9.164;2022-09-12T01:02:33;16.15;;;11.70;;
151;SDS011;68;48.792;9.164;2022-09-12T01:05:00;18.88;;;12.05;;
151;SDS011;68;48.792;9.164;2022-09-12T01:07:27;16.50;;;11.57;;
151;SDS011;68;48.792;9.164;2022-09-12T01:09:54;16.33;;;11.82;;
151;SDS011;68;48.792;9.164;2022-09-12T01:12:21;14.27;;;11.65;;
151;SDS011;68;48.792;9.164;2022-09-12T01:14:48;15.75;;;11.93;;
151;SDS011;68;48.792;9.164;2022-09-12T01:17:16;17.58;;;12.85;;
151;SDS011;68;48.792;9.164;2022-09-12T01:19:48;15.02;;;11.65;;
151;SDS011;68;48.792;9.164;2022-09-12T01:22:42;19.92;;;12.07;;
151;SDS011;68;48.792;9.164;2022-09-12T01:25:27;19.88;;;12.65;;
151;SDS011;68;48.792;9.164;2022-09-12T01:28:02;15.85;;;12.40;;
151;SDS011;68;48.792;9.164;2022-09-12T01:30:47;14.45;;;11.55;;
151;SDS011;68;48.792;9.164;2022-09-12T01:33:27;17.02;;;12.30;;
151;SDS011;68;48.792;9.164;2022-09-12T01:36:04;18.67;;;12.98;;
151;SDS011;68;48.792;9.164;2022-09-12T01:39:00;19.00;;;12.70;;
151;SDS011;68;48.792;9.164;2022-09-12T01:41:29;18.30;;;12.23;;
151;SDS011;68;48.792;9.164;2022-09-12T01:44:09;19.35;;;12.73;;
151;SDS011;68;48.792;9.164;2022-09-12T01:46:44;18.48;;;12.60;;
151;SDS011;68;48.792;9.164;2022-09-12T01:49:16;15.23;;;12.10;;
151;SDS011;68;48.792;9.164;2022-09-12T01:51:53;16.38;;;12.15;;
151;SDS011;68;48.792;9.164;2022-09-12T01:54:25;16.67;;;12.15;;
151;SDS011;68;48.792;9.164;2022-09-12T01:56:57;17.85;;;12.35;;
151;SDS011;68;48.792;9.164;2022-09-12T01:59:28;14.30;;;11.55;;
151;SDS011;68;48.792;9.164;2022-09-12T02:02:01;14.98;;;12.10;;
151;SDS011;68;48.792;9.164;2022-09-12T02:04:32;16.45;;;12.40;;
151;SDS011;68;48.792;9.164;2022-09-12T02:07:04;15.57;;;12.27;;
151;SDS011;68;48.792;9.164;2022-09-12T02:09:36;14.65;;;11.90;;
151;SDS011;68;48.792;9.164;2022-09-12T02:12:07;15.10;;;11.98;;
151;SDS011;68;48.792;9.164;2022-09-12T02:14:37;21.70;;;13.35;;
151;SDS011;68;48.792;9.164;2022-09-12T02:17:09;16.80;;;12.55;;
151;SDS011;68;48.792;9.164;2022-09-12T02:19:39;17.75;;;12.60;;
151;SDS011;68;48.792;9.164;2022-09-12T02:22:10;18.50;;;12.43;;
151;SDS011;68;48.792;9.164;2022-09-12T02:24:42;16.75;;;13.38;;
151;SDS011;68;48.792;9.164;2022-09-12T02:27:13;19.25;;;12.88;;
151;SDS011;68;48.792;9.164;2022-09-12T02:29:42;17.65;;;13.45;;
151;SDS011;68;48.792;9.164;2022-09-12T02:32:11;27.48;;;13.75;;
151;SDS011;68;48.792;9.164;2022-09-12T02:34:46;18.30;;;14.57;;
151;SDS011;68;48.792;9.164;2022-09-12T02:37:19;19.85;;;14.35;;
151;SDS011;68;48.792;9.164;2022-09-12T02:39:51;19.17;;;14.23;;
151;SDS011;68;48.792;9.164;2022-09-12T02:42:19;20.08;;;13.82;;
151;SDS011;68;48.792;9.164;2022-09-12T02:44:47;21.38;;;14.10;;
151;SDS011;68;48.792;9.164;2022-09-12T02:47:17;19.98;;;13.95;;
151;SDS011;68;48.792;9.164;2022-09-12T02:49:48;18.25;;;14.15;;
151;SDS011;68;48.792;9.164;2022-09-12T02:52:15;18.90;;;14.07;;
151;SDS011;68;48.792;9.164;2022-09-12T02:54:41;18.35;;;13.50;;
151;SDS011;68;48.792;9.164;2022-09-12T02:57:14;23.60;;;14.68;;
151;SDS011;68;48.792;9.164;2022-09-12T02:59:41;17.83;;;12.93;;
151;SDS011;68;48.792;9.164;2022-09-12T03:02:15;18.13;;;13.15;;
151;SDS011;68;48.792;9.164;2022-09-12T03:04:57;20.00;;;13.35;;
151;SDS011;68;48.792;9.164;2022-09-12T03:07:40;19.42;;;13.40;;
151;SDS011;68;48.792;9.164;2022-09-12T03:10:22;16.50;;;12.75;;
151;SDS011;68;48.792;9.164;2022-09-12T03:12:54;19.25;;;13.50;;
151;SDS011;68;48.792;9.164;2022-09-12T03:15:34;20.23;;;13.52;;
151;SDS011;68;48.792;9.164;2022-09-12T03:18:18;17.60;;;13.65;;
151;SDS011;68;48.792;9.164;2022-09-12T03:20:52;16.83;;;13.00;;
151;SDS011;68;48.792;9.164;2022-09-12T03:23:28;18.10;;;13.30;;
151;SDS011;68;48.792;9.164;2022-09-12T03:25:58;24.10;;;12.95;;
151;SDS011;68;48.792;9.164;2022-09-12T03:28:28;16.90;;;11.98;;
151;SDS011;68;48.792;9.164;2022-09-12T03:30:58;18.02;;;12.82;;
151;SDS011;68;48.792;9.164;2022-09-12T03:33:26;17.33;;;13.57;;
151;SDS011;68;48.792;9.164;2022-09-12T03:35:53;17.38;;;12.90;;
151;SDS011;68;48.792;9.164;2022-09-12T03:38:20;15.63;;;12.70;;
151;SDS011;68;48.792;9.164;2022-09-12T03:40:48;18.00;;;13.38;;
151;SDS011;68;48.792;9.164;2022-09-12T03:43:15;21.95;;;12.95;;
151;SDS011;68;48.792;9.164;2022-09-12T03:45:42;17.20;;;12.00;;
151;SDS011;68;48.792;9.164;2022-09-12T03:48:08;21.48;;;14.13;;
151;SDS011;68;48.792;9.164;2022-09-12T03:50:37;18.85;;;13.70;;
151;SDS011;68;48.792;9.164;2022-09-12T03:53:04;18.50;;;13.20;;
151;SDS011;68;48.792;9.164;2022-09-12T03:55:30;20.35;;;12.98;;
151;SDS011;68;48.792;9.164;2022-09-12T03:57:57;20.60;;;14.27;;
151;SDS011;68;48.792;9.164;2022-09-12T04:00:24;18.40;;;14.00;;
151;SDS011;68;48.792;9.164;2022-09-12T04:02:54;19.48;;;14.77;;
151;SDS011;68;48.792;9.164;2022-09-12T04:05:22;19.50;;;14.15;;
151;SDS011;68;48.792;9.164;2022-09-12T04:07:51;19.73;;;14.23;;
151;SDS011;68;48.792;9.164;2022-09-12T04:10:18;22.23;;;14.77;;
151;SDS011;68;48.792;9.164;2022-09-12T04:12:44;21.30;;;15.32;;
151;SDS011;68;48.792;9.164;2022-09-12T04:15:11;21.23;;;15.80;;
151;SDS011;68;48.792;9.164;2022-09-12T04:17:38;21.88;;;15.23;;
151;SDS011;68;48.792;9.164;2022-09-12T04:20:05;20.58;;;14.95;;
151;SDS011;68;48.792;9.164;2022-09-12T04:22:32;22.65;;;15.25;;
151;SDS011;68;48.792;9.164;2022-09-12T04:25:01;23.67;;;15.68;;
151;SDS011;68;48.792;9.164;2022-09-12T04:27:28;19.05;;;14.25;;
151;SDS011;68;48.792;9.164;2022-09-12T04:29:55;21.58;;;14.60;;
151;SDS011;68;48.792;9.164;2022-09-12T04:32:22;22.23;;;14.60;;
151;SDS011;68;48.792;9.164;2022-09-12T04:34:48;20.13;;;14.82;;
151;SDS011;68;48.792;9.164;2022-09-12T04:37:16;21.13;;;14.52;;
151;SDS011;68;48.792;9.164;2022-09-12T04:39:43;21.58;;;15.48;;
151;SDS011;68;48.792;9.164;2022-09-12T04:42:11;24.13;;;15.20;;
151;SDS011;68;48.792;9.164;2022-09-12T04:44:38;19.50;;;14.45;;
151;SDS011;68;48.792;9.164;2022-09-12T04:47:05;22.02;;;15.07;;
151;SDS011;68;48.792;9.164;2022-09-12T04:49:32;24.70;;;14.88;;
151;SDS011;68;48.792;9.164;2022-09-12T04:51:59;20.38;;;15.13;;
151;SDS011;68;48.792;9.164;2022-09-12T04:54:25;23.63;;;15.45;;
151;SDS011;68;48.792;9.164;2022-09-12T04:56:52;25.05;;;14.23;;
151;SDS011;68;48.792;9.164;2022-09-12T04:59:21;21.27;;;14.93;;
151;SDS011;68;48.792;9.164;2022-09-12T05:01:48;19.70;;;14.98;;
151;SDS011;68;48.792;9.164;2022-09-12T05:04:15;24.25;;;16.35;;
151;SDS011;68;48.792;9.164;2022-09-12T05:06:42;20.40;;;15.07;;
151;SDS011;68;48.792;9.164;2022-09-12T05:09:11;20.27;;;15.13;;
151;SDS011;68;48.792;9.164;2022-09-12T05:11:41;24.35;;;15.45;;
151;SDS011;68;48.792;9.164;2022-09-12T05:14:09;21.35;;;15.70;;
151;SDS011;68;48.792;9.164;2022-09-12T05:16:38;19.38;;;14.80;;
151;SDS011;68;48.792;9.164;2022-09-12T05:19:05;22.85;;;14.00;;
151;SDS011;68;48.792;9.164;2022-09-12T05:21:33;24.27;;;14.40;;
151;SDS011;68;48.792;9.164;2022-09-12T05:24:00;21.70;;;14.75;;
151;SDS011;68;48.792;9.164;2022-09-12T05:26:27;22.23;;;14.50;;
151;SDS011;68;48.792;9.164;2022-09-12T05:28:54;19.70;;;14.05;;
151;SDS011;68;48.792;9.164;2022-09-12T05:31:21;20.38;;;15.10;;
151;SDS011;68;48.792;9.164;2022-09-12T05:33:50;20.08;;;15.00;;
151;SDS011;68;48.792;9.164;2022-09-12T05:36:19;19.92;;;14.18;;
151;SDS011;68;48.792;9.164;2022-09-12T05:38:50;18.85;;;14.35;;
151;SDS011;68;48.792;9.164;2022-09-12T05:41:17;23.23;;;14.75;;
151;SDS011;68;48.792;9.164;2022-09-12T05:43:45;21.90;;;14.55;;
151;SDS011;68;48.792;9.164;2022-09-12T05:46:16;20.65;;;14.50;;
151;SDS011;68;48.792;9.164;2022-09-12T05:48:45;25.85;;;15.40;;
151;SDS011;68;48.792;9.164;2022-09-12T05:51:14;22.55;;;15.20;;
151;SDS011;68;48.792;9.164;2022-09-12T05:53:43;18.90;;;13.95;;
151;SDS011;68;48.792;9.164;2022-09-12T05:56:11;20.27;;;13.98;;
151;SDS011;68;48.792;9.164;2022-09-12T05:58:40;20.42;;;14.75;;
151;SDS011;68;48.792;9.164;2022-09-12T06:01:09;19.65;;;14.25;;
151;SDS011;68;48.792;9.164;2022-09-12T06:03:38;19.90;;;14.52;;
151;SDS011;68;48.792;9.164;2022-09-12T06:06:06;23.08;;;14.82;;
151;SDS011;68;48.792;9.164;2022-09-12T06:08:39;20.60;;;14.43;;
151;SDS011;68;48.792;9.164;2022-09-12T06:11:07;17.88;;;13.23;;
151;SDS011;68;48.792;9.164;2022-09-12T06:13:35;18.00;;;13.77;;
151;SDS011;68;48.792;9.164;2022-09-12T06:16:04;22.38;;;13.52;;
151;SDS011;68;48.792;9.164;2022-09-12T06:18:34;21.33;;;15.45;;
151;SDS011;68;48.792;9.164;2022-09-12T06:21:02;21.23;;;14.80;;
151;SDS011;68;48.792;9.164;2022-09-12T06:23:30;24.70;;;14.82;;
151;SDS011;68;48.792;9.164;2022-09-12T06:25:58;18.85;;;13.85;;
151;SDS011;68;48.792;9.164;2022-09-12T06:28:25;21.35;;;14.60;;
151;SDS011;68;48.792;9.164;2022-09-12T06:30:52;21.67;;;14.52;;
151;SDS011;68;48.792;9.164;2022-09-12T06:33:19;23.42;;;14.75;;
151;SDS011;68;48.792;9.164;2022-09-12T06:35:46;18.30;;;13.80;;
151;SDS011;68;48.792;9.164;2022-09-12T06:38:13;19.60;;;14.30;;
151;SDS011;68;48.792;9.164;2022-09-12T06:40:41;18.27;;;13.40;;
151;SDS011;68;48.792;9.164;2022-09-12T06:43:11;20.08;;;14.30;;
151;SDS011;68;48.792;9.164;2022-09-12T06:45:38;21.33;;;14.05;;
151;SDS011;68;48.792;9.164;2022-09-12T06:48:13;17.10;;;13.77;;
151;SDS011;68;48.792;9.164;2022-09-12T06:50:39;21.17;;;14.32;;
151;SDS011;68;48.792;9.164;2022-09-12T06:53:06;20.73;;;14.07;;
151;SDS011;68;48.792;9.164;2022-09-12T06:55:33;18.92;;;13.80;;
151;SDS011;68;48.792;9.164;2022-09-12T06:58:00;21.30;;;14.88;;
151;SDS011;68;48.792;9.164;2022-09-12T07:00:29;23.38;;;15.30;;
151;SDS011;68;48.792;9.164;2022-09-12T07:02:56;21.10;;;13.05;;
151;SDS011;68;48.792;9.164;2022-09-12T07:05:23;19.33;;;13.25;;
151;SDS011;68;48.792;9.164;2022-09-12T07:07:49;20.30;;;13.70;;
151;SDS011;68;48.792;9.164;2022-09-12T07:10:16;19.42;;;13.20;;
151;SDS011;68;48.792;9.164;2022-09-12T07:12:43;17.95;;;13.60;;
151;SDS011;68;48.792;9.164;2022-09-12T07:15:10;18.92;;;13.45;;
151;SDS011;68;48.792;9.164;2022-09-12T07:17:38;18.27;;;12.95;;
151;SDS011;68;48.792;9.164;2022-09-12T07:20:05;21.92;;;14.27;;
151;SDS011;68;48.792;9.164;2022-09-12T07:22:33;18.73;;;13.50;;
151;SDS011;68;48.792;9.164;2022-09-12T07:24:59;19.08;;;12.80;;
151;SDS011;68;48.792;9.164;2022-09-12T07:27:27;16.35;;;11.88;;
151;SDS011;68;48.792;9.164;2022-09-12T07:29:56;15.10;;;11.30;;
151;SDS011;68;48.792;9.164;2022-09-12T07:32:24;15.23;;;10.73;;
151;SDS011;68;48.792;9.164;2022-09-12T07:34:52;18.95;;;12.45;;
151;SDS011;68;48.792;9.164;2022-09-12T07:37:19;18.00;;;13.38;;
151;SDS011;68;48.792;9.164;2022-09-12T07:39:49;21.38;;;12.30;;
151;SDS011;68;48.792;9.164;2022-09-12T07:42:19;17.67;;;12.13;;
151;SDS011;68;48.792;9.164;2022-09-12T07:44:46;19.17;;;11.00;;
151;SDS011;68;48.792;9.164;2022-09-12T07:47:13;15.90;;;11.40;;
151;SDS011;68;48.792;9.164;2022-09-12T07:49:39;14.60;;;9.75;;
151;SDS011;68;48.792;9.164;2022-09-12T07:52:08;14.57;;;9.90;;
151;SDS011;68;48.792;9.164;2022-09-12T07:54:34;13.48;;;10.18;;
151;SDS011;68;48.792;9.164;2022-09-12T07:57:01;14.07;;;10.32;;
151;SDS011;68;48.792;9.164;2022-09-12T07:59:28;14.68;;;10.85;;
151;SDS011;68;48.792;9.164;2022-09-12T08:01:55;16.05;;;10.13;;
151;SDS011;68;48.792;9.164;2022-09-12T08:04:21;11.25;;;9.38;;
151;SDS011;68;48.792;9.164;2022-09-12T08:06:48;13.40;;;9.95;;
151;SDS011;68;48.792;9.164;2022-09-12T08:09:17;16.38;;;10.65;;
151;SDS011;68;48.792;9.164;2022-09-12T08:11:43;14.20;;;10.68;;
151;SDS011;68;48.792;9.164;2022-09-12T08:14:10;13.10;;;10.60;;
151;SDS011;68;48.792;9.164;2022-09-12T08:16:37;15.30;;;10.70;;
151;SDS011;68;48.792;9.164;2022-09-12T08:19:04;17.88;;;10.25;;
151;SDS011;68;48.792;9.164;2022-09-12T08:21:31;13.07;;;10.20;;
151;SDS011;68;48.792;9.164;2022-09-12T08:23:59;12.60;;;10.10;;
151;SDS011;68;48.792;9.164;2022-09-12T08:26:29;12.95;;;9.60;;
151;SDS011;68;48.792;9.164;2022-09-12T08:28:56;13.82;;;9.45;;
151;SDS011;68;48.792;9.164;2022-09-12T08:31:24;12.50;;;10.48;;
151;SDS011;68;48.792;9.164;2022-09-12T08:33:53;13.25;;;9.85;;
151;SDS011;68;48.792;9.164;2022-09-12T08:36:21;15.30;;;9.63;;
151;SDS011;68;48.792;9.164;2022-09-12T08:38:50;10.57;;;9.07;;
151;SDS011;68;48.792;9.164;2022-09-12T08:41:22;13.25;;;10.13;;
151;SDS011;68;48.792;9.164;2022-09-12T08:46:56;15.03;;;9.77;;
151;SDS011;68;48.792;9.164;2022-09-12T08:49:46;12.57;;;8.05;;
151;SDS011;68;48.792;9.164;2022-09-12T08:52:21;11.57;;;7.90;;
151;SDS011;68;48.792;9.164;2022-09-12T08:54:52;8.15;;;7.03;;
151;SDS011;68;48.792;9.164;2022-09-12T08:57:20;10.27;;;7.57;;
151;SDS011;68;48.792;9.164;2022-09-12T08:59:48;12.53;;;7.90;;
151;SDS011;68;48.792;9.164;2022-09-12T09:05:12;11.20;;;7.00;;
151;SDS011;68;48.792;9.164;2022-09-12T09:07:55;10.17;;;7.13;;
151;SDS011;68;48.792;9.164;2022-09-12T09:10:36;12.20;;;6.90;;
151;SDS011;68;48.792;9.164;2022-09-12T09:13:15;12.97;;;7.80;;
151;SDS011;68;48.792;9.164;2022-09-12T09:16:07;9.30;;;6.90;;
151;SDS011;68;48.792;9.164;2022-09-12T09:18:41;12.07;;;7.10;;
151;SDS011;68;48.792;9.164;2022-09-12T09:21:15;10.90;;;6.80;;
151;SDS011;68;48.792;9.164;2022-09-12T09:23:48;8.60;;;7.50;;
151;SDS011;68;48.792;9.164;2022-09-12T09:26:19;10.80;;;7.00;;
151;SDS011;68;48.792;9.164;2022-09-12T09:28:51;11.67;;;6.43;;
151;SDS011;68;48.792;9.164;2022-09-12T09:31:24;8.00;;;6.40;;
151;SDS011;68;48.792;9.164;2022-09-12T09:33:53;9.63;;;6.40;;
151;SDS011;68;48.792;9.164;2022-09-12T09:36:21;10.63;;;5.80;;
151;SDS011;68;48.792;9.164;2022-09-12T09:39:05;7.77;;;6.20;;
151;SDS011;68;48.792;9.164;2022-09-12T09:41:44;7.53;;;6.37;;
151;SDS011;68;48.792;9.164;2022-09-12T09:44:19;6.23;;;5.93;;
151;SDS011;68;48.792;9.164;2022-09-12T09:46:46;8.70;;;5.60;;
151;SDS011;68;48.792;9.164;2022-09-12T09:49:18;7.70;;;6.10;;
151;SDS011;68;48.792;9.164;2022-09-12T09:51:46;7.83;;;5.70;;
151;SDS011;68;48.792;9.164;2022-09-12T09:54:16;6.13;;;5.60;;
151;SDS011;68;48.792;9.164;2022-09-12T09:56:46;6.37;;;5.10;;
151;SDS011;68;48.792;9.164;2022-09-12T09:59:14;5.87;;;5.30;;
151;SDS011;68;48.792;9.164;2022-09-12T10:01:43;6.17;;;4.83;;
151;SDS011;68;48.792;9.164;2022-09-12T10:04:20;7.03;;;4.70;;
151;SDS011;68;48.792;9.164;2022-09-12T10:06:49;6.60;;;5.10;;
151;SDS011;68;48.792;9.164;2022-09-12T10:09:19;5.00;;;4.30;;
151;SDS011;68;48.792;9.164;2022-09-12T10:11:48;5.23;;;4.50;;
151;SDS011;68;48.792;9.164;2022-09-12T10:14:27;4.90;;;4.53;;
151;SDS011;68;48.792;9.164;2022-09-12T10:17:08;8.63;;;4.70;;
151;SDS011;68;48.792;9.164;2022-09-12T10:19:50;6.03;;;4.37;;
151;SDS011;68;48.792;9.164;2022-09-12T10:22:17;5.00;;;4.13;;
151;SDS011;68;48.792;9.164;2022-09-12T10:24:46;9.30;;;4.50;;
151;SDS011;68;48.792;9.164;2022-09-12T10:27:17;6.23;;;4.30;;
151;SDS011;68;48.792;9.164;2022-09-12T10:29:46;4.60;;;4.30;;
151;SDS011;68;48.792;9.164;2022-09-12T10:32:19;4.40;;;3.97;;
151;SDS011;68;48.792;9.164;2022-09-12T10:34:52;5.50;;;4.33;;
151;SDS011;68;48.792;9.164;2022-09-12T10:37:23;3.90;;;3.73;;
151;SDS011;68;48.792;9.164;2022-09-12T10:39:56;5.30;;;4.60;;
151;SDS011;68;48.792;9.164;2022-09-12T10:45:17;4.10;;;3.83;;
151;SDS011;68;48.792;9.164;2022-09-12T10:47:55;4.90;;;3.90;;
151;SDS011;68;48.792;9.164;2022-09-12T10:50:26;3.80;;;3.30;;
151;SDS011;68;48.792;9.164;2022-09-12T10:53:11;4.50;;;3.53;;
151;SDS011;68;48.792;9.164;2022-09-12T10:55:40;4.30;;;4.07;;
151;SDS011;68;48.792;9.164;2022-09-12T10:58:22;4.07;;;3.87;;
151;SDS011;68;48.792;9.164;2022-09-12T11:01:01;3.83;;;3.67;;
151;SDS011;68;48.792;9.164;2022-09-12T11:03:44;3.90;;;3.70;;
151;SDS011;68;48.792;9.164;2022-09-12T11:06:31;6.80;;;3.90;;
151;SDS011;68;48.792;9.164;2022-09-12T11:09:04;3.60;;;3.40;;
151;SDS011;68;48.792;9.164;2022-09-12T11:11:41;4.40;;;3.80;;
151;SDS011;68;48.792;9.164;2022-09-12T11:14:24;4.27;;;3.80;;
151;SDS011;68;48.792;9.164;2022-09-12T11:17:03;3.43;;;3.17;;
151;SDS011;68;48.792;9.164;2022-09-12T11:19:44;3.20;;;3.00;;
151;SDS011;68;48.792;9.164;2022-09-12T11:22:28;3.30;;;2.97;;
151;SDS011;68;48.792;9.164;2022-09-12T11:25:10;3.10;;;2.90;;
151;SDS011;68;48.792;9.164;2022-09-12T11:27:53;3.50;;;3.23;;
151;SDS011;68;48.792;9.164;2022-09-12T11:30:50;3.40;;;3.20;;
151;SDS011;68;48.792;9.164;2022-09-12T11:33:39;3.17;;;2.97;;
151;SDS011;68;48.792;9.164;2022-09-12T11:36:10;4.67;;;3.70;;
151;SDS011;68;48.792;9.164;2022-09-12T11:38:51;2.87;;;2.70;;
151;SDS011;68;48.792;9.164;2022-09-12T11:41:26;3.13;;;2.97;;
151;SDS011;68;48.792;9.164;2022-09-12T11:43:59;3.00;;;2.80;;
151;SDS011;68;48.792;9.164;2022-09-12T11:46:33;3.20;;;3.00;;
151;SDS011;68;48.792;9.164;2022-09-12T11:49:04;2.93;;;2.73;;
151;SDS011;68;48.792;9.164;2022-09-12T11:51:39;2.63;;;2.43;;
151;SDS011;68;48.792;9.164;2022-09-12T11:54:13;2.80;;;2.70;;
151;SDS011;68;48.792;9.164;2022-09-12T11:56:46;2.70;;;2.53;;
151;SDS011;68;48.792;9.164;2022-09-12T11:59:28;2.80;;;2.43;;
151;SDS011;68;48.792;9.164;2022-09-12T12:01:59;2.67;;;2.40;;
151;SDS011;68;48.792;9.164;2022-09-12T12:04:31;6.70;;;2.40;;
151;SDS011;68;48.792;9.164;2022-09-12T12:07:05;9.23;;;2.63;;
151;SDS011;68;48.792;9.164;2022-09-12T12:09:35;4.07;;;2.47;;
151;SDS011;68;48.792;9.164;2022-09-12T12:12:12;2.57;;;2.17;;
151;SDS011;68;48.792;9.164;2022-09-12T12:14:43;6.00;;;2.50;;
151;SDS011;68;48.792;9.164;2022-09-12T12:17:14;2.77;;;2.40;;
151;SDS011;68;48.792;9.164;2022-09-12T12:19:42;1.87;;;1.80;;
151;SDS011;68;48.792;9.164;2022-09-12T12:22:15;2.87;;;2.20;;
151;SDS011;68;48.792;9.164;2022-09-12T12:25:07;4.53;;;3.13;;
151;SDS011;68;48.792;9.164;2022-09-12T12:27:53;2.77;;;2.30;;
151;SDS011;68;48.792;9.164;2022-09-12T12:36:29;2.50;;;2.30;;
151;SDS011;68;48.792;9.164;2022-09-12T12:48:57;2.47;;;2.33;;
151;SDS011;68;48.792;9.164;2022-09-12T12:51:38;2.73;;;2.53;;
151;SDS011;68;48.792;9.164;2022-09-12T12:54:33;3.10;;;2.60;;
151;SDS011;68;48.792;9.164;2022-09-12T12:57:19;4.80;;;2.70;;
151;SDS011;68;48.792;9.164;2022-09-12T12:59:54;3.03;;;2.53;;
151;SDS011;68;48.792;9.164;2022-09-12T13:02:25;2.80;;;2.60;;
151;SDS011;68;48.792;9.164;2022-09-12T13:04:57;2.83;;;2.47;;
151;SDS011;68;48.792;9.164;2022-09-12T13:07:28;3.90;;;2.50;;
151;SDS011;68;48.792;9.164;2022-09-12T13:09:57;2.73;;;2.50;;
151;SDS011;68;48.792;9.164;2022-09-12T13:12:26;2.93;;;2.80;;
151;SDS011;68;48.792;9.164;2022-09-12T13:14:57;2.60;;;2.40;;
151;SDS011;68;48.792;9.164;2022-09-12T13:17:31;2.90;;;2.70;;
151;SDS011;68;48.792;9.164;2022-09-12T13:20:04;2.83;;;2.47;;
151;SDS011;68;48.792;9.164;2022-09-12T13:22:47;2.77;;;2.60;;
151;SDS011;68;48.792;9.164;2022-09-12T13:25:19;2.43;;;2.33;;
151;SDS011;68;48.792;9.164;2022-09-12T13:27:55;2.70;;;2.57;;
151;SDS011;68;48.792;9.164;2022-09-12T13:30:41;2.60;;;2.50;;
151;SDS011;68;48.792;9.164;2022-09-12T13:33:15;4.10;;;2.30;;
151;SDS011;68;48.792;9.164;2022-09-12T13:35:52;3.20;;;2.70;;
151;SDS011;68;48.792;9.164;2022-09-12T13:38:36;2.60;;;2.40;;
151;SDS011;68;48.792;9.164;2022-09-12T13:41:17;2.50;;;2.30;;
151;SDS011;68;48.792;9.164;2022-09-12T13:43:58;2.70;;;2.50;;
151;SDS011;68;48.792;9.164;2022-09-12T13:46:29;2.27;;;2.07;;
151;SDS011;68;48.792;9.164;2022-09-12T13:48:58;4.40;;;2.60;;
151;SDS011;68;48.792;9.164;2022-09-12T13:51:28;5.30;;;2.40;;
151;SDS011;68;48.792;9.164;2022-09-12T13:53:57;2.60;;;2.40;;
151;SDS011;68;48.792;9.164;2022-09-12T13:56:28;2.33;;;2.17;;
151;SDS011;68;48.792;9.164;2022-09-12T13:58:55;2.50;;;2.30;;
151;SDS011;68;48.792;9.164;2022-09-12T14:01:35;2.17;;;2.00;;
151;SDS011;68;48.792;9.164;2022-09-12T14:04:09;2.30;;;2.10;;
151;SDS011;68;48.792;9.164;2022-09-12T14:06:59;4.13;;;2.60;;
151;SDS011;68;48.792;9.164;2022-09-12T14:09:36;2.50;;;2.27;;
151;SDS011;68;48.792;9.164;2022-09-12T14:12:09;3.20;;;2.40;;
151;SDS011;68;48.792;9.164;2022-09-12T14:14:45;2.77;;;2.40;;
151;SDS011;68;48.792;9.164;2022-09-12T14:17:14;3.70;;;2.33;;
151;SDS011;68;48.792;9.164;2022-09-12T14:19:41;2.70;;;2.40;;
151;SDS011;68;48.792;9.164;2022-09-12T14:22:11;2.53;;;2.10;;
151;SDS011;68;48.792;9.164;2022-09-12T14:24:42;2.30;;;2.10;;
151;SDS011;68;48.792;9.164;2022-09-12T14:27:15;2.30;;;2.20;;
151;SDS011;68;48.792;9.164;2022-09-12T14:29:43;2.40;;;2.30;;
151;SDS011;68;48.792;9.164;2022-09-12T14:32:16;2.43;;;2.23;;
151;SDS011;68;48.792;9.164;2022-09-12T14:35:04;2.40;;;2.27;;
151;SDS011;68;48.792;9.164;2022-09-12T14:37:48;4.03;;;2.07;;
151;SDS011;68;48.792;9.164;2022-09-12T14:40:17;2.50;;;2.30;;
151;SDS011;68;48.792;9.164;2022-09-12T14:42:45;2.60;;;2.40;;
151;SDS011;68;48.792;9.164;2022-09-12T14:45:15;3.60;;;2.67;;
151;SDS011;68;48.792;9.164;2022-09-12T14:47:47;3.90;;;2.40;;
151;SDS011;68;48.792;9.164;2022-09-12T14:50:16;3.13;;;2.40;;
151;SDS011;68;48.792;9.164;2022-09-12T14:52:44;2.90;;;2.50;;
151;SDS011;68;48.792;9.164;2022-09-12T14:55:21;3.20;;;2.80;;
151;SDS011;68;48.792;9.164;2022-09-12T14:58:05;2.40;;;2.20;;
151;SDS011;68;48.792;9.164;2022-09-12T15:00:37;3.00;;;2.47;;
151;SDS011;68;48.792;9.164;2022-09-12T15:03:26;4.10;;;2.43;;
151;SDS011;68;48.792;9.164;2022-09-12T15:05:55;5.20;;;2.33;;
151;SDS011;68;48.792;9.164;2022-09-12T15:08:22;5.33;;;2.30;;
151;SDS011;68;48.792;9.164;2022-09-12T15:10:51;2.63;;;2.43;;
151;SDS011;68;48.792;9.164;2022-09-12T15:13:20;2.67;;;2.47;;
151;SDS011;68;48.792;9.164;2022-09-12T15:15:48;2.50;;;2.40;;
151;SDS011;68;48.792;9.164;2022-09-12T15:18:16;2.60;;;2.50;;
151;SDS011;68;48.792;9.164;2022-09-12T15:20:45;3.30;;;2.60;;
151;SDS011;68;48.792;9.164;2022-09-12T15:23:15;2.60;;;2.40;;
151;SDS011;68;48.792;9.164;2022-09-12T15:25:45;2.33;;;2.13;;
151;SDS011;68;48.792;9.164;2022-09-12T15:28:18;3.00;;;2.40;;
151;SDS011;68;48.792;9.164;2022-09-12T15:30:47;2.50;;;2.30;;
151;SDS011;68;48.792;9.164;2022-09-12T15:33:15;2.63;;;2.37;;
151;SDS011;68;48.792;9.164;2022-09-12T15:35:43;2.70;;;2.50;;
151;SDS011;68;48.792;9.164;2022-09-12T15:38:10;2.37;;;2.27;;
151;SDS011;68;48.792;9.164;2022-09-12T15:40:37;2.63;;;2.20;;
151;SDS011;68;48.792;9.164;2022-09-12T15:43:04;2.37;;;2.17;;
151;SDS011;68;48.792;9.164;2022-09-12T15:45:33;2.63;;;2.43;;
151;SDS011;68;48.792;9.164;2022-09-12T15:48:00;2.83;;;2.50;;
151;SDS011;68;48.792;9.164;2022-09-12T15:50:28;3.07;;;2.50;;
151;SDS011;68;48.792;9.164;2022-09-12T15:52:55;2.50;;;2.30;;
151;SDS011;68;48.792;9.164;2022-09-12T15:55:26;2.70;;;2.37;;
151;SDS011;68;48.792;9.164;2022-09-12T15:57:54;6.37;;;3.00;;
151;SDS011;68;48.792;9.164;2022-09-12T16:00:21;2.60;;;2.40;;
151;SDS011;68;48.792;9.164;2022-09-12T16:02:50;2.80;;;2.60;;
151;SDS011;68;48.792;9.164;2022-09-12T16:05:19;2.90;;;2.70;;
151;SDS011;68;48.792;9.164;2022-09-12T16:07:47;3.83;;;2.40;;
151;SDS011;68;48.792;9.164;2022-09-12T16:10:17;3.30;;;2.70;;
151;SDS011;68;48.792;9.164;2022-09-12T16:12:45;3.07;;;2.87;;
151;SDS011;68;48.792;9.164;2022-09-12T16:15:13;3.20;;;2.90;;
151;SDS011;68;48.792;9.164;2022-09-12T16:17:41;4.80;;;3.10;;
151;SDS011;68;48.792;9.164;2022-09-12T16:20:10;3.77;;;3.20;;
151;SDS011;68;48.792;9.164;2022-09-12T16:22:37;3.73;;;2.90;;
151;SDS011;68;48.792;9.164;2022-09-12T16:25:04;4.60;;;2.90;;
151;SDS011;68;48.792;9.164;2022-09-12T16:27:32;2.80;;;2.50;;
151;SDS011;68;48.792;9.164;2022-09-12T16:30:00;3.60;;;2.70;;
151;SDS011;68;48.792;9.164;2022-09-12T16:32:27;3.07;;;2.70;;
151;SDS011;68;48.792;9.164;2022-09-12T16:34:53;3.13;;;2.80;;
151;SDS011;68;48.792;9.164;2022-09-12T16:37:22;3.40;;;2.80;;
151;SDS011;68;48.792;9.164;2022-09-12T16:39:48;2.90;;;2.50;;